createdAt,value
2019-04-22T00:00:55.434Z,9.20
2019-04-22T00:03:32.538Z,9.20
2019-04-22T00:06:14.718Z,9.10
2019-04-22T00:08:50.645Z,9.00
2019-04-22T00:11:27.258Z,9.00
2019-04-22T00:13:55.551Z,9.20
2019-04-22T00:16:27.432Z,8.80
2019-04-22T00:21:25.753Z,8.80
2019-04-22T00:23:52.586Z,9.10
2019-04-22T00:26:24.282Z,9.30
2019-04-22T00:31:20.939Z,8.80
2019-04-22T00:33:53.220Z,8.60
2019-04-22T00:36:22.531Z,8.60
2019-04-22T00:39:04.761Z,8.50
2019-04-22T00:41:34.168Z,8.40
2019-04-22T00:43:58.031Z,8.40
2019-04-22T00:46:25.122Z,8.30
2019-04-22T00:49:31.152Z,8.30
2019-04-22T00:51:28.504Z,8.30
2019-04-22T00:53:57.873Z,8.60
2019-04-22T00:56:21.947Z,8.50
2019-04-22T00:58:50.562Z,8.80
2019-04-22T01:01:26.245Z,8.70
2019-04-22T01:04:04.539Z,9.10
2019-04-22T01:06:26.817Z,9.00
2019-04-22T01:09:04.643Z,8.60
2019-04-22T01:11:29.776Z,8.60
2019-04-22T01:13:55.523Z,8.60
2019-04-22T01:16:28.333Z,8.50
2019-04-22T01:19:05.277Z,8.50
2019-04-22T01:21:37.099Z,8.40
2019-04-22T01:23:59.697Z,8.30
2019-04-22T01:26:24.287Z,8.30
2019-04-22T01:28:55.309Z,8.40
2019-04-22T01:31:17.864Z,8.60
2019-04-22T01:33:49.773Z,8.60
2019-04-22T01:36:33.501Z,8.60
2019-04-22T01:39:02.395Z,8.50
2019-04-22T01:41:42.014Z,8.50
2019-04-22T01:44:17.521Z,8.40
2019-04-22T01:49:08.500Z,8.40
2019-04-22T01:51:53.813Z,8.20
2019-04-22T01:54:15.098Z,8.20
2019-04-22T01:56:44.971Z,8.20
2019-04-22T01:59:03.073Z,8.10
2019-04-22T02:01:48.394Z,7.90
2019-04-22T02:04:17.355Z,7.80
2019-04-22T02:06:42.150Z,7.80
2019-04-22T02:09:20.298Z,8.20
2019-04-22T02:11:48.768Z,8.10
2019-04-22T02:14:11.317Z,8.10
2019-04-22T02:16:47.482Z,7.90
2019-04-22T02:19:20.703Z,8.30
2019-04-22T02:21:44.024Z,8.00
2019-04-22T02:24:15.984Z,7.70
2019-04-22T02:26:41.674Z,7.80
2019-04-22T02:29:20.757Z,7.70
2019-04-22T02:31:48.978Z,7.80
2019-04-22T02:39:17.939Z,7.20
2019-04-22T02:44:20.351Z,7.00
2019-04-22T02:51:43.262Z,7.10
2019-04-22T02:56:43.805Z,7.00
2019-04-22T03:01:47.760Z,6.80
2019-04-22T03:04:18.460Z,6.60
2019-04-22T03:06:55.982Z,6.40
2019-04-22T03:09:25.482Z,6.30
2019-04-22T03:21:57.753Z,6.40
2019-04-22T03:30:36.673Z,6.60
2019-04-22T03:40:18.258Z,6.50
2019-04-22T03:42:46.175Z,6.50
2019-04-22T03:45:10.194Z,6.50
2019-04-22T03:47:38.222Z,6.70
2019-04-22T03:52:20.600Z,6.70
2019-04-22T03:55:07.432Z,6.60
2019-04-22T03:57:49.791Z,6.90
2019-04-22T04:00:15.720Z,6.80
2019-04-22T04:02:39.185Z,6.90
2019-04-22T04:05:00.215Z,7.00
2019-04-22T04:10:12.690Z,7.10
2019-04-22T04:12:38.530Z,7.00
2019-04-22T04:15:14.028Z,6.90
2019-04-22T04:20:10.759Z,7.00
2019-04-22T04:30:14.887Z,6.90
2019-04-22T04:32:51.338Z,6.80
2019-04-22T04:35:23.921Z,6.80
2019-04-22T04:37:45.019Z,6.80
2019-04-22T04:40:22.509Z,6.80
2019-04-22T04:42:46.359Z,6.70
2019-04-22T04:50:12.215Z,6.70
2019-04-22T04:57:57.637Z,7.00
2019-04-22T05:02:44.738Z,6.90
2019-04-22T05:07:44.298Z,6.80
2019-04-22T05:12:53.003Z,6.80
2019-04-22T05:15:21.605Z,7.20
2019-04-22T05:20:29.448Z,7.10
2019-04-22T05:22:39.949Z,7.30
2019-04-22T05:25:13.108Z,7.40
2019-04-22T05:27:40.112Z,7.40
2019-04-22T05:32:39.970Z,7.30
2019-04-22T05:35:10.254Z,7.50
2019-04-22T05:37:45.844Z,7.90
2019-04-22T05:40:16.353Z,8.00
2019-04-22T05:42:39.426Z,8.10
2019-04-22T05:45:13.255Z,8.30
2019-04-22T05:47:42.211Z,8.60
2019-04-22T05:50:11.305Z,8.20
2019-04-22T05:52:40.406Z,8.40
2019-04-22T05:55:14.420Z,8.70
2019-04-22T05:57:37.257Z,8.60
2019-04-22T06:00:16.200Z,8.90
2019-04-22T06:02:53.546Z,9.30
2019-04-22T06:05:10.126Z,9.40
2019-04-22T06:07:38.659Z,9.40
2019-04-22T06:10:22.187Z,9.60
2019-04-22T06:12:46.558Z,10.40
2019-04-22T06:15:18.307Z,9.90
2019-04-22T06:17:54.805Z,10.30
2019-04-22T06:35:36.317Z,11.70
2019-04-22T06:50:24.209Z,11.90
2019-04-22T06:57:51.124Z,12.70
2019-04-22T07:05:21.802Z,13.00
2019-04-22T07:15:41.167Z,13.70
2019-04-22T07:20:24.203Z,14.00
2019-04-22T07:27:52.597Z,14.20
2019-04-22T07:35:22.869Z,14.70
2019-04-22T07:40:16.905Z,15.00
2019-04-22T07:45:26.584Z,15.40
2019-04-22T07:50:36.623Z,15.70
2019-04-22T07:52:52.236Z,15.50
2019-04-22T07:55:25.534Z,15.80
2019-04-22T07:57:52.115Z,16.00
2019-04-22T08:00:22.812Z,16.10
2019-04-22T08:02:59.826Z,16.20
2019-04-22T08:05:24.847Z,16.60
2019-04-22T08:08:05.274Z,16.30
2019-04-22T08:10:34.832Z,16.30
2019-04-22T08:15:31.246Z,16.90
2019-04-22T08:18:09.905Z,17.10
2019-04-22T08:20:29.006Z,16.90
2019-04-22T08:23:00.916Z,17.30
2019-04-22T08:25:24.844Z,17.60
2019-04-22T08:27:57.047Z,17.60
2019-04-22T08:33:04.423Z,17.70
2019-04-22T08:35:40.886Z,17.70
2019-04-22T08:38:14.827Z,18.00
2019-04-22T08:45:38.445Z,18.50
2019-04-22T08:48:01.226Z,18.70
2019-04-22T08:50:33.963Z,18.70
2019-04-22T08:53:09.406Z,18.80
2019-04-22T08:55:38.512Z,19.00
2019-04-22T08:58:21.695Z,19.30
2019-04-22T09:00:44.188Z,19.30
2019-04-22T09:03:13.786Z,19.10
2019-04-22T09:05:48.586Z,19.00
2019-04-22T09:15:45.490Z,18.90
2019-04-22T09:20:43.466Z,19.00
2019-04-22T09:23:21.508Z,19.10
2019-04-22T09:25:41.941Z,19.40
2019-04-22T09:28:14.895Z,19.30
2019-04-22T09:30:49.557Z,19.80
2019-04-22T09:33:17.047Z,19.80
2019-04-22T09:35:45.354Z,19.80
2019-04-22T09:38:25.510Z,20.30
2019-04-22T09:43:17.969Z,20.30
2019-04-22T09:45:48.323Z,19.90
2019-04-22T09:48:18.095Z,20.30
2019-04-22T09:50:47.702Z,20.30
2019-04-22T09:53:14.840Z,20.30
2019-04-22T09:55:55.219Z,20.40
2019-04-22T09:58:18.165Z,20.30
2019-04-22T10:01:12.408Z,20.60
2019-04-22T10:06:16.627Z,20.60
2019-04-22T10:11:14.971Z,20.70
2019-04-22T10:13:45.521Z,20.60
2019-04-22T10:16:10.782Z,20.50
2019-04-22T10:18:38.703Z,20.60
2019-04-22T10:21:08.369Z,20.50
2019-04-22T10:23:42.465Z,20.60
2019-04-22T10:26:13.060Z,20.60
2019-04-22T10:28:44.534Z,20.80
2019-04-22T10:31:09.940Z,21.10
2019-04-22T10:33:33.232Z,21.20
2019-04-22T10:35:45.622Z,21.00
2019-04-22T10:38:14.407Z,21.20
2019-04-22T10:40:43.053Z,21.00
2019-04-22T10:43:11.688Z,20.90
2019-04-22T10:45:40.310Z,21.50
2019-04-22T10:48:10.460Z,21.30
2019-04-22T10:50:43.749Z,21.40
2019-04-22T10:53:15.325Z,21.40
2019-04-22T10:55:46.791Z,21.50
2019-04-22T10:58:16.831Z,21.90
2019-04-22T11:00:47.394Z,22.10
2019-04-22T11:03:16.331Z,21.80
2019-04-22T11:05:46.298Z,22.00
2019-04-22T11:08:25.650Z,22.50
2019-04-22T11:11:03.916Z,22.30
2019-04-22T11:13:15.974Z,22.40
2019-04-22T11:15:45.036Z,21.80
2019-04-22T11:18:13.768Z,22.50
2019-04-22T11:20:43.893Z,22.30
2019-04-22T11:23:14.287Z,22.40
2019-04-22T11:25:43.969Z,22.00
2019-04-22T11:28:13.679Z,22.10
2019-04-22T11:30:42.797Z,22.10
2019-04-22T11:33:12.124Z,22.40
2019-04-22T11:35:41.778Z,22.40
2019-04-22T11:38:10.877Z,22.50
2019-04-22T11:40:43.897Z,22.20
2019-04-22T11:43:10.280Z,22.60
2019-04-22T11:45:39.639Z,22.60
2019-04-22T11:48:09.128Z,22.50
2019-04-22T11:50:40.016Z,22.40
2019-04-22T11:53:09.081Z,22.40
2019-04-22T11:55:37.853Z,22.50
2019-04-22T11:58:06.768Z,22.80
2019-04-22T12:00:37.042Z,22.90
2019-04-22T12:03:07.267Z,23.30
2019-04-22T12:05:37.480Z,23.10
2019-04-22T12:08:07.358Z,23.00
2019-04-22T12:10:44.133Z,22.80
2019-04-22T12:13:06.406Z,22.50
2019-04-22T12:15:35.213Z,22.90
2019-04-22T12:18:04.429Z,23.00
2019-04-22T12:20:33.065Z,23.40
2019-04-22T12:23:03.138Z,23.10
2019-04-22T12:25:43.287Z,23.50
2019-04-22T12:28:03.253Z,23.20
2019-04-22T12:30:33.429Z,23.50
2019-04-22T12:33:02.462Z,23.30
2019-04-22T12:35:32.544Z,23.10
2019-04-22T12:38:04.954Z,23.00
2019-04-22T12:40:40.879Z,23.10
2019-04-22T12:43:04.768Z,23.20
2019-04-22T12:45:32.035Z,23.20
2019-04-22T12:48:00.541Z,23.00
2019-04-22T12:50:33.746Z,23.20
2019-04-22T12:53:06.486Z,23.20
2019-04-22T12:55:30.269Z,23.00
2019-04-22T12:58:00.931Z,23.60
2019-04-22T13:00:30.213Z,23.20
2019-04-22T13:02:58.978Z,23.30
2019-04-22T13:05:29.098Z,23.30
2019-04-22T13:07:57.902Z,22.80
2019-04-22T13:10:40.021Z,23.20
2019-04-22T13:12:58.555Z,22.70
2019-04-22T13:15:28.780Z,22.50
2019-04-22T13:18:06.036Z,23.20
2019-04-22T13:20:28.192Z,22.90
2019-04-22T13:22:57.066Z,22.90
2019-04-22T13:25:28.029Z,22.80
2019-04-22T13:27:57.531Z,22.80
2019-04-22T13:30:28.287Z,22.90
2019-04-22T13:32:56.977Z,22.80
2019-04-22T13:35:26.270Z,22.80
2019-04-22T13:37:57.378Z,22.40
2019-04-22T13:40:26.231Z,22.40
2019-04-22T13:42:55.566Z,22.40
2019-04-22T13:45:25.564Z,22.60
2019-04-22T13:50:56.632Z,22.60
2019-04-22T13:53:42.721Z,22.50
2019-04-22T13:54:00.251Z,22.80
2019-04-22T13:55:53.215Z,22.70
2019-04-22T13:58:11.902Z,22.60
2019-04-22T14:00:34.217Z,22.70
2019-04-22T14:03:20.509Z,23.30
2019-04-22T14:05:50.964Z,23.10
2019-04-22T14:08:19.976Z,22.80
2019-04-22T14:10:50.186Z,23.20
2019-04-22T14:13:19.644Z,23.30
2019-04-22T14:15:48.741Z,23.40
2019-04-22T14:18:18.948Z,23.30
2019-04-22T14:20:49.000Z,23.60
2019-04-22T14:23:17.848Z,23.40
2019-04-22T14:25:46.485Z,23.60
2019-04-22T14:28:17.592Z,23.40
2019-04-22T14:30:46.415Z,23.30
2019-04-22T14:33:16.074Z,23.60
2019-04-22T14:35:45.765Z,23.20
2019-04-22T14:38:14.313Z,23.30
2019-04-22T14:40:45.311Z,23.20
2019-04-22T14:43:44.902Z,23.00
2019-04-22T14:46:20.531Z,23.40
2019-04-22T14:48:41.986Z,23.40
2019-04-22T14:51:06.280Z,23.40
2019-04-22T14:53:36.558Z,23.30
2019-04-22T14:55:46.361Z,23.30
2019-04-22T14:58:15.205Z,23.30
2019-04-22T15:00:44.277Z,23.30
2019-04-22T15:03:15.467Z,23.20
2019-04-22T15:05:44.323Z,23.20
2019-04-22T15:08:13.230Z,23.10
2019-04-22T15:10:42.276Z,22.90
2019-04-22T15:13:11.541Z,23.20
2019-04-22T15:15:48.017Z,22.80
2019-04-22T15:18:26.041Z,23.00
2019-04-22T15:20:56.555Z,23.10
2019-04-22T15:23:26.639Z,23.10
2019-04-22T15:25:56.802Z,23.30
2019-04-22T15:28:25.456Z,23.40
2019-04-22T15:30:55.467Z,23.60
2019-04-22T15:33:25.502Z,23.20
2019-04-22T15:38:24.391Z,23.30
2019-04-22T15:40:54.568Z,23.40
2019-04-22T15:43:26.968Z,23.00
2019-04-22T15:45:54.740Z,23.30
2019-04-22T15:48:24.945Z,23.40
2019-04-22T15:50:54.972Z,23.40
2019-04-22T15:53:23.555Z,23.40
2019-04-22T15:55:52.505Z,23.40
2019-04-22T15:58:21.792Z,23.60
2019-04-22T16:00:59.898Z,23.60
2019-04-22T16:03:20.654Z,23.60
2019-04-22T16:05:50.262Z,23.70
2019-04-22T16:08:19.230Z,23.50
2019-04-22T16:10:48.198Z,23.60
2019-04-22T16:13:21.320Z,23.40
2019-04-22T16:15:47.055Z,23.40
2019-04-22T16:18:15.619Z,23.50
2019-04-22T16:20:44.170Z,23.50
2019-04-22T16:23:15.573Z,23.30
2019-04-22T16:25:53.389Z,23.20
2019-04-22T16:28:22.246Z,23.30
2019-04-22T16:30:51.170Z,23.00
2019-04-22T16:33:21.483Z,22.80
2019-04-22T16:35:50.854Z,23.00
2019-04-22T16:38:19.577Z,23.00
2019-04-22T16:40:48.648Z,23.00
2019-04-22T16:43:17.415Z,22.90
2019-04-22T16:45:47.551Z,22.90
2019-04-22T16:48:17.737Z,22.70
2019-04-22T16:50:48.673Z,22.80
2019-04-22T16:53:16.922Z,22.30
2019-04-22T16:55:46.648Z,22.50
2019-04-22T16:58:16.654Z,22.50
2019-04-22T17:00:46.934Z,22.30
2019-04-22T17:03:36.520Z,22.00
2019-04-22T17:06:09.928Z,22.20
2019-04-22T17:08:39.050Z,22.10
2019-04-22T17:11:07.918Z,21.70
2019-04-22T17:13:38.187Z,22.00
2019-04-22T17:16:07.314Z,21.90
2019-04-22T17:18:37.097Z,22.10
2019-04-22T17:21:08.454Z,21.90
2019-04-22T17:23:37.901Z,21.70
2019-04-22T17:26:08.278Z,21.50
2019-04-22T17:28:37.417Z,21.60
2019-04-22T17:31:06.667Z,21.30
2019-04-22T17:33:36.972Z,21.20
2019-04-22T17:36:07.609Z,21.00
2019-04-22T17:38:45.419Z,20.80
2019-04-22T17:41:20.902Z,21.10
2019-04-22T17:43:59.107Z,21.00
2019-04-22T17:46:30.179Z,21.00
2019-04-22T17:49:04.416Z,20.80
2019-04-22T17:54:12.891Z,20.80
2019-04-22T17:56:39.109Z,21.00
2019-04-22T17:59:09.117Z,21.10
2019-04-22T18:01:39.746Z,20.70
2019-04-22T18:03:56.611Z,20.70
2019-04-22T18:06:50.821Z,20.70
2019-04-22T18:09:14.609Z,20.60
2019-04-22T18:11:48.039Z,20.30
2019-04-22T18:14:29.915Z,20.50
2019-04-22T18:16:41.337Z,19.70
2019-04-22T18:19:15.562Z,20.30
2019-04-22T18:21:41.065Z,19.70
2019-04-22T18:24:05.068Z,20.10
2019-04-22T18:26:43.319Z,19.90
2019-04-22T18:29:11.202Z,19.90
2019-04-22T18:31:38.530Z,19.70
2019-04-22T18:34:06.905Z,19.60
2019-04-22T18:36:44.155Z,19.50
2019-04-22T18:39:17.553Z,19.20
2019-04-22T18:41:47.105Z,19.00
2019-04-22T18:44:19.890Z,18.90
2019-04-22T18:46:44.625Z,19.60
2019-04-22T18:49:12.380Z,19.10
2019-04-22T18:51:46.219Z,19.00
2019-04-22T18:54:34.260Z,19.00
2019-04-22T18:57:02.626Z,18.30
2019-04-22T18:59:21.598Z,18.80
2019-04-22T19:01:43.901Z,18.50
2019-04-22T19:04:19.033Z,18.60
2019-04-22T19:06:58.677Z,17.90
2019-04-22T19:09:43.896Z,17.80
2019-04-22T19:12:21.004Z,17.70
2019-04-22T19:14:43.957Z,18.20
2019-04-22T19:17:21.594Z,17.90
2019-04-22T19:19:58.475Z,17.80
2019-04-22T19:22:06.672Z,17.70
2019-04-22T19:24:34.373Z,17.70
2019-04-22T19:27:23.371Z,17.80
2019-04-22T19:29:39.879Z,17.30
2019-04-22T19:32:06.958Z,17.20
2019-04-22T19:34:36.802Z,17.00
2019-04-22T19:37:11.435Z,17.10
2019-04-22T19:39:40.955Z,17.40
2019-04-22T19:42:19.181Z,17.10
2019-04-22T19:44:39.278Z,17.10
2019-04-22T19:49:49.557Z,16.90
2019-04-22T19:54:41.618Z,17.10
2019-04-22T19:57:03.538Z,16.70
2019-04-22T19:59:51.452Z,16.10
2019-04-22T20:02:42.049Z,16.30
2019-04-22T20:05:25.917Z,16.60
2019-04-22T20:07:41.346Z,15.90
2019-04-22T20:10:20.577Z,16.10
2019-04-22T20:12:48.335Z,15.80
2019-04-22T20:15:19.970Z,15.90
2019-04-22T20:18:11.733Z,15.90
2019-04-22T20:20:27.646Z,16.10
2019-04-22T20:25:07.609Z,15.70
2019-04-22T20:27:54.684Z,15.70
2019-04-22T20:30:23.189Z,15.60
2019-04-22T20:32:47.744Z,15.60
2019-04-22T20:35:30.285Z,16.10
2019-04-22T20:37:54.806Z,15.40
2019-04-22T20:40:25.172Z,15.80
2019-04-22T20:43:10.519Z,15.40
2019-04-22T20:45:23.918Z,15.40
2019-04-22T20:47:45.182Z,15.30
2019-04-22T20:50:23.888Z,15.70
2019-04-22T20:52:59.694Z,15.30
2019-04-22T20:55:23.909Z,15.30
2019-04-22T20:58:02.677Z,15.70
2019-04-22T21:00:23.482Z,15.10
2019-04-22T21:12:55.820Z,15.00
2019-04-22T21:15:34.965Z,15.00
2019-04-22T21:17:57.534Z,14.80
2019-04-22T21:20:31.786Z,14.70
2019-04-22T21:22:59.890Z,14.50
2019-04-22T21:25:23.897Z,14.60
2019-04-22T21:28:05.740Z,15.00
2019-04-22T21:30:31.859Z,14.80
2019-04-22T21:32:57.981Z,14.50
2019-04-22T21:35:47.248Z,14.70
2019-04-22T21:38:04.521Z,14.80
2019-04-22T21:40:37.674Z,14.40
2019-04-22T21:43:05.752Z,14.60
2019-04-22T21:45:23.896Z,14.70
2019-04-22T21:48:11.538Z,14.20
2019-04-22T21:50:58.118Z,14.80
2019-04-22T21:53:11.164Z,14.10
2019-04-22T21:55:37.369Z,14.30
2019-04-22T21:58:14.808Z,14.50
2019-04-22T22:00:54.095Z,14.20
2019-04-22T22:03:14.320Z,14.50
2019-04-22T22:05:34.350Z,14.50
2019-04-22T22:08:20.355Z,14.50
2019-04-22T22:10:47.499Z,14.50
2019-04-22T22:13:10.928Z,14.40
2019-04-22T22:15:42.024Z,14.20
2019-04-22T22:18:10.204Z,14.10
2019-04-22T22:21:02.240Z,14.00
2019-04-22T22:23:22.039Z,13.90
2019-04-22T22:25:43.655Z,13.90
2019-04-22T22:28:33.410Z,13.70
2019-04-22T22:33:16.757Z,13.50
2019-04-22T22:35:45.794Z,13.50
2019-04-22T22:38:19.455Z,13.50
2019-04-22T22:40:28.542Z,13.50
2019-04-22T22:42:57.839Z,13.50
2019-04-22T22:45:34.867Z,13.40
2019-04-22T22:48:21.627Z,13.60
2019-04-22T22:50:44.580Z,13.40
2019-04-22T22:53:28.760Z,13.90
2019-04-22T22:55:46.298Z,13.50
2019-04-22T22:58:24.561Z,14.10
2019-04-22T23:00:44.679Z,13.90
2019-04-22T23:05:52.708Z,13.90
2019-04-22T23:08:20.113Z,13.60
2019-04-22T23:10:55.650Z,13.50
2019-04-22T23:13:25.637Z,13.30
2019-04-22T23:15:44.257Z,13.40
2019-04-22T23:17:59.686Z,13.70
2019-04-22T23:20:34.345Z,13.60
2019-04-22T23:23:23.933Z,13.60
2019-04-22T23:25:56.702Z,13.30
2019-04-22T23:28:16.054Z,13.30
2019-04-22T23:33:35.747Z,13.30
2019-04-22T23:36:03.830Z,13.40
2019-04-22T23:38:47.916Z,13.50
2019-04-22T23:41:39.163Z,13.50
2019-04-22T23:44:02.064Z,13.40
2019-04-22T23:46:47.045Z,13.60
2019-04-22T23:49:20.377Z,13.50
2019-04-22T23:51:55.177Z,13.50
2019-04-22T23:54:24.421Z,13.50
2019-04-22T23:56:47.953Z,13.50
2019-04-22T23:59:38.371Z,13.30
